sensor_id;sensor_type;location;lat;lon;timestamp;P1;durP1;ratioP1;P2;durP2;ratioP2
51174;SDS011;37240;50.104;20.010;2023-03-01T00:03:45;117.82;;;38.97;;
51174;SDS011;37240;50.104;20.010;2023-03-01T00:08:46;113.07;;;38.47;;
51174;SDS011;37240;50.104;20.010;2023-03-01T00:13:48;115.95;;;39.78;;
51174;SDS011;37240;50.104;20.010;2023-03-01T00:18:50;104.20;;;36.17;;
51174;SDS011;37240;50.104;20.010;2023-03-01T00:23:51;111.05;;;38.90;;
51174;SDS011;37240;50.104;20.010;2023-03-01T00:28:52;108.32;;;38.00;;
51174;SDS011;37240;50.104;20.010;2023-03-01T00:33:53;126.53;;;38.25;;
51174;SDS011;37240;50.104;20.010;2023-03-01T00:38:55;114.43;;;39.63;;
51174;SDS011;37240;50.104;20.010;2023-03-01T00:43:56;111.45;;;38.88;;
51174;SDS011;37240;50.104;20.010;2023-03-01T00:48:57;122.28;;;42.28;;
51174;SDS011;37240;50.104;20.010;2023-03-01T00:53:59;108.35;;;37.88;;
51174;SDS011;37240;50.104;20.010;2023-03-01T00:59:00;110.97;;;38.72;;
51174;SDS011;37240;50.104;20.010;2023-03-01T01:04:03;115.00;;;37.17;;
51174;SDS011;37240;50.104;20.010;2023-03-01T01:09:06;113.85;;;37.83;;
51174;SDS011;37240;50.104;20.010;2023-03-01T01:14:08;120.03;;;39.30;;
51174;SDS011;37240;50.104;20.010;2023-03-01T01:19:10;114.43;;;40.47;;
51174;SDS011;37240;50.104;20.010;2023-03-01T01:24:11;125.28;;;42.40;;
51174;SDS011;37240;50.104;20.010;2023-03-01T01:29:12;117.03;;;40.03;;
51174;SDS011;37240;50.104;20.010;2023-03-01T01:34:14;136.07;;;42.95;;
51174;SDS011;37240;50.104;20.010;2023-03-01T01:39:17;117.30;;;40.40;;
51174;SDS011;37240;50.104;20.010;2023-03-01T01:49:42;118.90;;;41.47;;
51174;SDS011;37240;50.104;20.010;2023-03-01T02:00:12;119.82;;;41.35;;
51174;SDS011;37240;50.104;20.010;2023-03-01T02:10:38;131.23;;;44.58;;
51174;SDS011;37240;50.104;20.010;2023-03-01T02:15:40;147.60;;;49.05;;
51174;SDS011;37240;50.104;20.010;2023-03-01T02:26:09;148.25;;;48.33;;
51174;SDS011;37240;50.104;20.010;2023-03-01T02:31:19;149.18;;;50.50;;
51174;SDS011;37240;50.104;20.010;2023-03-01T02:36:28;141.98;;;47.00;;
51174;SDS011;37240;50.104;20.010;2023-03-01T02:41:35;154.05;;;48.55;;
51174;SDS011;37240;50.104;20.010;2023-03-01T02:46:44;148.55;;;48.85;;
51174;SDS011;37240;50.104;20.010;2023-03-01T02:57:23;132.05;;;44.15;;
51174;SDS011;37240;50.104;20.010;2023-03-01T03:02:26;138.07;;;47.33;;
51174;SDS011;37240;50.104;20.010;2023-03-01T03:07:29;133.02;;;45.05;;
51174;SDS011;37240;50.104;20.010;2023-03-01T03:12:29;135.98;;;46.95;;
51174;SDS011;37240;50.104;20.010;2023-03-01T03:17:30;138.23;;;47.22;;
51174;SDS011;37240;50.104;20.010;2023-03-01T03:22:31;205.20;;;74.13;;
51174;SDS011;37240;50.104;20.010;2023-03-01T03:27:31;142.07;;;49.58;;
51174;SDS011;37240;50.104;20.010;2023-03-01T03:32:32;135.00;;;45.97;;
51174;SDS011;37240;50.104;20.010;2023-03-01T03:37:32;123.78;;;43.40;;
51174;SDS011;37240;50.104;20.010;2023-03-01T03:42:33;131.82;;;43.90;;
51174;SDS011;37240;50.104;20.010;2023-03-01T03:47:34;127.97;;;42.35;;
51174;SDS011;37240;50.104;20.010;2023-03-01T03:52:34;126.60;;;42.90;;
51174;SDS011;37240;50.104;20.010;2023-03-01T03:57:35;125.78;;;44.28;;
51174;SDS011;37240;50.104;20.010;2023-03-01T04:02:42;126.75;;;41.53;;
51174;SDS011;37240;50.104;20.010;2023-03-01T04:07:43;128.65;;;41.95;;
51174;SDS011;37240;50.104;20.010;2023-03-01T04:12:44;121.65;;;41.92;;
51174;SDS011;37240;50.104;20.010;2023-03-01T04:17:46;119.82;;;40.08;;
51174;SDS011;37240;50.104;20.010;2023-03-01T04:22:46;126.85;;;42.38;;
51174;SDS011;37240;50.104;20.010;2023-03-01T04:27:47;115.00;;;41.88;;
51174;SDS011;37240;50.104;20.010;2023-03-01T04:32:47;111.47;;;39.22;;
51174;SDS011;37240;50.104;20.010;2023-03-01T04:37:48;117.22;;;40.67;;
51174;SDS011;37240;50.104;20.010;2023-03-01T04:42:49;107.40;;;37.78;;
51174;SDS011;37240;50.104;20.010;2023-03-01T04:47:50;109.93;;;36.20;;
51174;SDS011;37240;50.104;20.010;2023-03-01T04:52:50;117.75;;;37.40;;
51174;SDS011;37240;50.104;20.010;2023-03-01T04:57:51;109.68;;;37.45;;
51174;SDS011;37240;50.104;20.010;2023-03-01T05:02:53;120.15;;;42.63;;
51174;SDS011;37240;50.104;20.010;2023-03-01T05:07:56;120.22;;;40.67;;
51174;SDS011;37240;50.104;20.010;2023-03-01T05:12:59;112.55;;;39.42;;
51174;SDS011;37240;50.104;20.010;2023-03-01T05:18:00;112.40;;;38.33;;
51174;SDS011;37240;50.104;20.010;2023-03-01T05:23:00;126.43;;;41.97;;
51174;SDS011;37240;50.104;20.010;2023-03-01T05:28:02;123.93;;;40.72;;
51174;SDS011;37240;50.104;20.010;2023-03-01T05:33:02;114.13;;;40.75;;
51174;SDS011;37240;50.104;20.010;2023-03-01T05:38:03;120.68;;;43.30;;
51174;SDS011;37240;50.104;20.010;2023-03-01T05:43:03;120.88;;;41.55;;
51174;SDS011;37240;50.104;20.010;2023-03-01T05:48:04;135.52;;;44.13;;
51174;SDS011;37240;50.104;20.010;2023-03-01T05:53:07;127.68;;;43.67;;
51174;SDS011;37240;50.104;20.010;2023-03-01T05:58:19;140.65;;;46.63;;
51174;SDS011;37240;50.104;20.010;2023-03-01T06:03:20;129.15;;;46.38;;
51174;SDS011;37240;50.104;20.010;2023-03-01T06:08:20;116.45;;;43.10;;
51174;SDS011;37240;50.104;20.010;2023-03-01T06:13:21;132.05;;;44.28;;
51174;SDS011;37240;50.104;20.010;2023-03-01T06:18:22;111.28;;;41.70;;
51174;SDS011;37240;50.104;20.010;2023-03-01T06:23:23;116.90;;;42.53;;
51174;SDS011;37240;50.104;20.010;2023-03-01T06:28:24;129.63;;;46.55;;
51174;SDS011;37240;50.104;20.010;2023-03-01T06:33:24;115.50;;;40.58;;
51174;SDS011;37240;50.104;20.010;2023-03-01T06:38:25;128.77;;;49.63;;
51174;SDS011;37240;50.104;20.010;2023-03-01T06:43:26;143.70;;;48.78;;
51174;SDS011;37240;50.104;20.010;2023-03-01T06:48:26;150.98;;;51.45;;
51174;SDS011;37240;50.104;20.010;2023-03-01T06:53:27;136.75;;;51.22;;
51174;SDS011;37240;50.104;20.010;2023-03-01T06:58:28;125.45;;;47.17;;
51174;SDS011;37240;50.104;20.010;2023-03-01T07:03:29;110.10;;;39.88;;
51174;SDS011;37240;50.104;20.010;2023-03-01T07:08:29;93.35;;;37.25;;
51174;SDS011;37240;50.104;20.010;2023-03-01T07:13:30;98.38;;;36.03;;
51174;SDS011;37240;50.104;20.010;2023-03-01T07:18:31;88.45;;;35.47;;
51174;SDS011;37240;50.104;20.010;2023-03-01T07:23:31;87.55;;;33.13;;
51174;SDS011;37240;50.104;20.010;2023-03-01T07:28:33;88.47;;;32.90;;
51174;SDS011;37240;50.104;20.010;2023-03-01T07:33:34;95.57;;;36.67;;
51174;SDS011;37240;50.104;20.010;2023-03-01T07:38:34;97.03;;;35.28;;
51174;SDS011;37240;50.104;20.010;2023-03-01T07:43:35;102.93;;;39.00;;
51174;SDS011;37240;50.104;20.010;2023-03-01T07:48:35;99.20;;;38.35;;
51174;SDS011;37240;50.104;20.010;2023-03-01T07:53:36;89.45;;;35.17;;
51174;SDS011;37240;50.104;20.010;2023-03-01T07:58:37;90.82;;;37.25;;
51174;SDS011;37240;50.104;20.010;2023-03-01T08:03:39;88.78;;;34.45;;
51174;SDS011;37240;50.104;20.010;2023-03-01T08:08:40;81.38;;;32.47;;
51174;SDS011;37240;50.104;20.010;2023-03-01T08:13:41;97.28;;;35.83;;
51174;SDS011;37240;50.104;20.010;2023-03-01T08:18:43;94.22;;;36.65;;
51174;SDS011;37240;50.104;20.010;2023-03-01T08:23:46;76.00;;;30.65;;
51174;SDS011;37240;50.104;20.010;2023-03-01T08:28:47;91.22;;;32.45;;
51174;SDS011;37240;50.104;20.010;2023-03-01T08:33:49;89.85;;;32.67;;
51174;SDS011;37240;50.104;20.010;2023-03-01T08:38:51;94.05;;;33.15;;
51174;SDS011;37240;50.104;20.010;2023-03-01T08:43:52;84.60;;;33.55;;
51174;SDS011;37240;50.104;20.010;2023-03-01T08:48:53;72.15;;;31.75;;
51174;SDS011;37240;50.104;20.010;2023-03-01T08:53:54;81.38;;;31.35;;
51174;SDS011;37240;50.104;20.010;2023-03-01T08:58:54;77.75;;;29.33;;
51174;SDS011;37240;50.104;20.010;2023-03-01T09:03:55;68.78;;;25.77;;
51174;SDS011;37240;50.104;20.010;2023-03-01T09:08:55;57.15;;;21.88;;
51174;SDS011;37240;50.104;20.010;2023-03-01T09:13:56;50.90;;;19.98;;
51174;SDS011;37240;50.104;20.010;2023-03-01T09:18:57;56.55;;;20.05;;
51174;SDS011;37240;50.104;20.010;2023-03-01T09:23:57;51.22;;;17.58;;
51174;SDS011;37240;50.104;20.010;2023-03-01T09:28:58;34.10;;;14.40;;
51174;SDS011;37240;50.104;20.010;2023-03-01T09:33:59;40.75;;;17.23;;
51174;SDS011;37240;50.104;20.010;2023-03-01T09:38:59;46.00;;;17.58;;
51174;SDS011;37240;50.104;20.010;2023-03-01T09:44:03;55.20;;;18.45;;
51174;SDS011;37240;50.104;20.010;2023-03-01T09:49:13;42.65;;;16.52;;
51174;SDS011;37240;50.104;20.010;2023-03-01T09:54:16;28.67;;;11.82;;
51174;SDS011;37240;50.104;20.010;2023-03-01T09:59:23;33.80;;;12.90;;
51174;SDS011;37240;50.104;20.010;2023-03-01T10:04:41;26.02;;;12.45;;
51174;SDS011;37240;50.104;20.010;2023-03-01T10:09:46;40.97;;;17.23;;
51174;SDS011;37240;50.104;20.010;2023-03-01T10:24:56;47.35;;;17.90;;
51174;SDS011;37240;50.104;20.010;2023-03-01T10:30:09;41.65;;;16.08;;
51174;SDS011;37240;50.104;20.010;2023-03-01T10:35:25;40.95;;;14.68;;
51174;SDS011;37240;50.104;20.010;2023-03-01T10:40:27;45.13;;;16.83;;
51174;SDS011;37240;50.104;20.010;2023-03-01T10:50:38;58.95;;;20.58;;
51174;SDS011;37240;50.104;20.010;2023-03-01T10:55:47;60.35;;;22.77;;
51174;SDS011;37240;50.104;20.010;2023-03-01T11:01:02;57.58;;;23.60;;
51174;SDS011;37240;50.104;20.010;2023-03-01T11:06:06;66.68;;;24.50;;
51174;SDS011;37240;50.104;20.010;2023-03-01T11:16:25;69.40;;;27.13;;
51174;SDS011;37240;50.104;20.010;2023-03-01T11:26:30;68.50;;;26.90;;
51174;SDS011;37240;50.104;20.010;2023-03-01T11:31:35;66.85;;;25.52;;
51174;SDS011;37240;50.104;20.010;2023-03-01T11:41:43;57.97;;;22.13;;
51174;SDS011;37240;50.104;20.010;2023-03-01T11:52:57;75.45;;;31.23;;
51174;SDS011;37240;50.104;20.010;2023-03-01T11:58:10;50.67;;;20.42;;
51174;SDS011;37240;50.104;20.010;2023-03-01T12:03:16;56.53;;;21.35;;
51174;SDS011;37240;50.104;20.010;2023-03-01T12:46:20;60.65;;;22.02;;
51174;SDS011;37240;50.104;20.010;2023-03-01T12:51:28;60.00;;;21.05;;
51174;SDS011;37240;50.104;20.010;2023-03-01T12:56:34;62.13;;;22.00;;
51174;SDS011;37240;50.104;20.010;2023-03-01T13:12:03;51.33;;;22.33;;
51174;SDS011;37240;50.104;20.010;2023-03-01T13:17:03;55.67;;;22.17;;
51174;SDS011;37240;50.104;20.010;2023-03-01T13:22:46;53.67;;;19.95;;
51174;SDS011;37240;50.104;20.010;2023-03-01T13:27:32;48.95;;;20.70;;
51174;SDS011;37240;50.104;20.010;2023-03-01T13:32:34;50.50;;;21.20;;
51174;SDS011;37240;50.104;20.010;2023-03-01T13:37:36;49.20;;;19.63;;
51174;SDS011;37240;50.104;20.010;2023-03-01T13:42:39;45.67;;;18.83;;
51174;SDS011;37240;50.104;20.010;2023-03-01T13:47:41;41.75;;;16.15;;
51174;SDS011;37240;50.104;20.010;2023-03-01T13:53:00;46.60;;;16.52;;
51174;SDS011;37240;50.104;20.010;2023-03-01T13:58:14;42.72;;;14.65;;
51174;SDS011;37240;50.104;20.010;2023-03-01T14:03:19;44.20;;;16.05;;
51174;SDS011;37240;50.104;20.010;2023-03-01T14:08:21;43.92;;;17.13;;
51174;SDS011;37240;50.104;20.010;2023-03-01T14:23:56;33.78;;;14.18;;
51174;SDS011;37240;50.104;20.010;2023-03-01T14:28:58;39.92;;;15.30;;
51174;SDS011;37240;50.104;20.010;2023-03-01T14:33:58;36.72;;;13.95;;
51174;SDS011;37240;50.104;20.010;2023-03-01T14:38:59;36.97;;;13.77;;
51174;SDS011;37240;50.104;20.010;2023-03-01T14:44:01;37.17;;;14.15;;
51174;SDS011;37240;50.104;20.010;2023-03-01T14:49:15;40.13;;;15.55;;
51174;SDS011;37240;50.104;20.010;2023-03-01T14:59:25;29.55;;;13.55;;
51174;SDS011;37240;50.104;20.010;2023-03-01T15:04:27;36.95;;;13.90;;
51174;SDS011;37240;50.104;20.010;2023-03-01T15:09:29;37.42;;;14.57;;
51174;SDS011;37240;50.104;20.010;2023-03-01T15:14:43;32.53;;;13.60;;
51174;SDS011;37240;50.104;20.010;2023-03-01T15:19:45;41.60;;;15.13;;
51174;SDS011;37240;50.104;20.010;2023-03-01T15:24:49;39.47;;;15.15;;
51174;SDS011;37240;50.104;20.010;2023-03-01T15:29:50;34.95;;;14.60;;
51174;SDS011;37240;50.104;20.010;2023-03-01T15:34:54;57.05;;;13.48;;
51174;SDS011;37240;50.104;20.010;2023-03-01T15:39:55;33.88;;;12.15;;
51174;SDS011;37240;50.104;20.010;2023-03-01T15:50:26;35.58;;;13.82;;
51174;SDS011;37240;50.104;20.010;2023-03-01T15:55:29;38.05;;;12.73;;
51174;SDS011;37240;50.104;20.010;2023-03-01T16:00:31;35.50;;;14.20;;
51174;SDS011;37240;50.104;20.010;2023-03-01T16:05:32;30.00;;;12.25;;
51174;SDS011;37240;50.104;20.010;2023-03-01T16:10:34;42.88;;;14.88;;
51174;SDS011;37240;50.104;20.010;2023-03-01T16:15:41;41.85;;;14.13;;
51174;SDS011;37240;50.104;20.010;2023-03-01T16:20:41;36.13;;;15.05;;
51174;SDS011;37240;50.104;20.010;2023-03-01T16:25:42;35.65;;;15.02;;
51174;SDS011;37240;50.104;20.010;2023-03-01T16:30:45;36.10;;;14.52;;
51174;SDS011;37240;50.104;20.010;2023-03-01T16:35:46;41.25;;;16.52;;
51174;SDS011;37240;50.104;20.010;2023-03-01T16:40:47;40.83;;;14.15;;
51174;SDS011;37240;50.104;20.010;2023-03-01T16:45:50;40.55;;;15.30;;
51174;SDS011;37240;50.104;20.010;2023-03-01T16:51:00;39.70;;;16.00;;
51174;SDS011;37240;50.104;20.010;2023-03-01T16:56:02;50.97;;;16.63;;
51174;SDS011;37240;50.104;20.010;2023-03-01T17:01:06;46.65;;;17.98;;
51174;SDS011;37240;50.104;20.010;2023-03-01T17:06:09;49.63;;;18.08;;
51174;SDS011;37240;50.104;20.010;2023-03-01T17:11:12;45.30;;;16.42;;
51174;SDS011;37240;50.104;20.010;2023-03-01T17:16:15;38.75;;;15.52;;
51174;SDS011;37240;50.104;20.010;2023-03-01T17:21:17;47.40;;;17.67;;
51174;SDS011;37240;50.104;20.010;2023-03-01T17:26:18;46.15;;;17.75;;
51174;SDS011;37240;50.104;20.010;2023-03-01T17:31:18;57.92;;;20.55;;
51174;SDS011;37240;50.104;20.010;2023-03-01T17:36:19;63.85;;;22.27;;
51174;SDS011;37240;50.104;20.010;2023-03-01T17:41:20;65.45;;;22.23;;
51174;SDS011;37240;50.104;20.010;2023-03-01T17:46:20;65.07;;;22.05;;
51174;SDS011;37240;50.104;20.010;2023-03-01T17:51:21;62.67;;;22.45;;
51174;SDS011;37240;50.104;20.010;2023-03-01T17:56:21;74.07;;;26.17;;
51174;SDS011;37240;50.104;20.010;2023-03-01T18:01:22;116.47;;;38.85;;
51174;SDS011;37240;50.104;20.010;2023-03-01T18:06:23;169.60;;;50.25;;
51174;SDS011;37240;50.104;20.010;2023-03-01T18:11:25;143.65;;;43.05;;
51174;SDS011;37240;50.104;20.010;2023-03-01T18:16:25;116.38;;;36.55;;
51174;SDS011;37240;50.104;20.010;2023-03-01T18:21:26;101.35;;;34.35;;
51174;SDS011;37240;50.104;20.010;2023-03-01T18:26:28;191.32;;;70.68;;
51174;SDS011;37240;50.104;20.010;2023-03-01T18:31:29;181.63;;;62.63;;
51174;SDS011;37240;50.104;20.010;2023-03-01T18:36:30;123.97;;;46.05;;
51174;SDS011;37240;50.104;20.010;2023-03-01T18:41:34;137.30;;;46.67;;
51174;SDS011;37240;50.104;20.010;2023-03-01T18:46:35;172.20;;;51.47;;
51174;SDS011;37240;50.104;20.010;2023-03-01T18:51:36;160.75;;;50.97;;
51174;SDS011;37240;50.104;20.010;2023-03-01T18:56:37;142.38;;;45.55;;
51174;SDS011;37240;50.104;20.010;2023-03-01T19:01:37;133.10;;;43.95;;
51174;SDS011;37240;50.104;20.010;2023-03-01T19:06:38;115.65;;;40.78;;
51174;SDS011;37240;50.104;20.010;2023-03-01T19:11:38;114.40;;;40.30;;
51174;SDS011;37240;50.104;20.010;2023-03-01T19:16:39;121.15;;;40.50;;
51174;SDS011;37240;50.104;20.010;2023-03-01T19:21:39;146.98;;;50.78;;
51174;SDS011;37240;50.104;20.010;2023-03-01T19:26:40;162.05;;;55.33;;
51174;SDS011;37240;50.104;20.010;2023-03-01T19:31:40;143.13;;;48.00;;
51174;SDS011;37240;50.104;20.010;2023-03-01T19:36:42;133.98;;;45.85;;
51174;SDS011;37240;50.104;20.010;2023-03-01T19:41:43;139.88;;;49.05;;
51174;SDS011;37240;50.104;20.010;2023-03-01T19:46:43;132.57;;;47.22;;
51174;SDS011;37240;50.104;20.010;2023-03-01T19:51:44;146.05;;;49.65;;
51174;SDS011;37240;50.104;20.010;2023-03-01T19:56:45;124.15;;;45.35;;
51174;SDS011;37240;50.104;20.010;2023-03-01T20:01:46;137.93;;;46.55;;
51174;SDS011;37240;50.104;20.010;2023-03-01T20:06:47;141.38;;;46.58;;
51174;SDS011;37240;50.104;20.010;2023-03-01T20:11:48;131.23;;;43.80;;
51174;SDS011;37240;50.104;20.010;2023-03-01T20:16:49;135.90;;;43.42;;
51174;SDS011;37240;50.104;20.010;2023-03-01T20:21:50;119.82;;;43.38;;
51174;SDS011;37240;50.104;20.010;2023-03-01T20:26:50;135.25;;;46.97;;
51174;SDS011;37240;50.104;20.010;2023-03-01T20:31:51;132.45;;;47.45;;
51174;SDS011;37240;50.104;20.010;2023-03-01T20:36:52;140.77;;;47.60;;
51174;SDS011;37240;50.104;20.010;2023-03-01T20:41:52;143.32;;;47.15;;
51174;SDS011;37240;50.104;20.010;2023-03-01T20:46:53;147.25;;;51.15;;
51174;SDS011;37240;50.104;20.010;2023-03-01T20:51:53;148.57;;;50.75;;
51174;SDS011;37240;50.104;20.010;2023-03-01T20:56:54;129.07;;;45.83;;
51174;SDS011;37240;50.104;20.010;2023-03-01T21:01:54;133.68;;;46.63;;
51174;SDS011;37240;50.104;20.010;2023-03-01T21:06:55;147.80;;;50.88;;
51174;SDS011;37240;50.104;20.010;2023-03-01T21:11:55;161.00;;;58.17;;
51174;SDS011;37240;50.104;20.010;2023-03-01T21:16:56;172.13;;;59.65;;
51174;SDS011;37240;50.104;20.010;2023-03-01T21:21:57;166.02;;;57.33;;
51174;SDS011;37240;50.104;20.010;2023-03-01T21:26:57;173.43;;;61.00;;
51174;SDS011;37240;50.104;20.010;2023-03-01T21:31:58;198.85;;;66.55;;
51174;SDS011;37240;50.104;20.010;2023-03-01T21:36:59;188.45;;;66.03;;
51174;SDS011;37240;50.104;20.010;2023-03-01T21:42:01;163.50;;;56.50;;
51174;SDS011;37240;50.104;20.010;2023-03-01T21:47:02;158.60;;;55.67;;
51174;SDS011;37240;50.104;20.010;2023-03-01T21:52:03;159.52;;;56.25;;
51174;SDS011;37240;50.104;20.010;2023-03-01T21:57:04;167.48;;;57.05;;
51174;SDS011;37240;50.104;20.010;2023-03-01T22:02:04;161.60;;;59.00;;
51174;SDS011;37240;50.104;20.010;2023-03-01T22:07:05;172.55;;;58.90;;
51174;SDS011;37240;50.104;20.010;2023-03-01T22:12:06;165.48;;;59.25;;
51174;SDS011;37240;50.104;20.010;2023-03-01T22:17:06;178.15;;;61.35;;
51174;SDS011;37240;50.104;20.010;2023-03-01T22:22:07;157.13;;;56.90;;
51174;SDS011;37240;50.104;20.010;2023-03-01T22:27:07;166.15;;;56.72;;
51174;SDS011;37240;50.104;20.010;2023-03-01T22:32:08;160.05;;;55.42;;
51174;SDS011;37240;50.104;20.010;2023-03-01T22:37:08;178.90;;;60.10;;
51174;SDS011;37240;50.104;20.010;2023-03-01T22:42:09;182.00;;;64.85;;
51174;SDS011;37240;50.104;20.010;2023-03-01T22:47:10;181.70;;;60.42;;
51174;SDS011;37240;50.104;20.010;2023-03-01T22:52:10;172.20;;;58.45;;
51174;SDS011;37240;50.104;20.010;2023-03-01T22:57:11;156.70;;;53.90;;
51174;SDS011;37240;50.104;20.010;2023-03-01T23:02:11;142.63;;;53.42;;
51174;SDS011;37240;50.104;20.010;2023-03-01T23:07:12;141.30;;;50.00;;
51174;SDS011;37240;50.104;20.010;2023-03-01T23:12:12;146.27;;;50.22;;
51174;SDS011;37240;50.104;20.010;2023-03-01T23:17:13;150.52;;;51.25;;
51174;SDS011;37240;50.104;20.010;2023-03-01T23:22:14;156.25;;;52.97;;
51174;SDS011;37240;50.104;20.010;2023-03-01T23:27:14;146.80;;;54.47;;
51174;SDS011;37240;50.104;20.010;2023-03-01T23:32:15;168.45;;;58.45;;
51174;SDS011;37240;50.104;20.010;2023-03-01T23:37:15;176.45;;;60.00;;
51174;SDS011;37240;50.104;20.010;2023-03-01T23:42:16;156.63;;;53.65;;
51174;SDS011;37240;50.104;20.010;2023-03-01T23:47:16;164.77;;;56.75;;
51174;SDS011;37240;50.104;20.010;2023-03-01T23:52:17;171.25;;;60.28;;
51174;SDS011;37240;50.104;20.010;2023-03-01T23:57:18;171.05;;;57.72;;
